Time;durP1;ratioP1;P1;durP2;ratioP2;P2;SDS_P1;SDS_P2;PMS_P1;PMS_P2;Temp;Humidity;BMP_temperature;BMP_pressure;BME280_temperature;BME280_humidity;BME280_pressure;Samples;Min_cycle;Max_cycle;Signal;HPM_P1;HPM_P2
2023/03/01 00:04:37;;;;;;;13.68;11.27;;;;;;;3.02;50.04;101295.31;10488583;28;20141;-58
2023/03/01 00:09:39;;;;;;;13.02;11.35;;;;;;;2.97;50.09;101300.72;10489436;28;20678;-61
2023/03/01 00:14:41;;;;;;;11.60;10.40;;;;;;;2.95;50.21;101302.53;10488320;28;20071;-59
2023/03/01 00:19:43;;;;;;;12.75;10.13;;;;;;;2.96;50.45;101308.66;10485915;28;20051;-58
2023/03/01 00:24:44;;;;;;;11.52;10.32;;;;;;;2.83;50.57;101280.09;10477372;28;20123;-58
2023/03/01 00:29:46;;;;;;;11.93;9.65;;;;;;;3.02;50.36;101300.56;10484963;28;20055;-58
2023/03/01 00:34:53;;;;;;;12.55;11.27;;;;;;;2.94;50.56;101284.16;10488275;28;20070;-58
2023/03/01 00:39:55;;;;;;;11.63;10.27;;;;;;;2.94;50.07;101268.38;10467122;28;20437;-57
2023/03/01 00:44:57;;;;;;;11.75;10.55;;;;;;;2.97;50.13;101273.53;10481187;28;20076;-58
2023/03/01 00:49:59;;;;;;;12.88;11.65;;;;;;;2.98;50.37;101280.53;10483114;28;20213;-57
2023/03/01 00:55:00;;;;;;;10.90;9.85;;;;;;;2.89;50.38;101257.16;10467610;28;20066;-58
2023/03/01 01:00:05;;;;;;;11.70;10.25;;;;;;;2.89;50.76;101272.94;10490433;28;20058;-59
2023/03/01 01:05:07;;;;;;;11.82;10.63;;;;;;;2.91;50.71;101273.75;10488494;28;20082;-60
2023/03/01 01:10:12;;;;;;;11.80;10.48;;;;;;;2.86;50.92;101259.91;10489537;28;20126;-59
2023/03/01 01:15:16;;;;;;;12.40;10.95;;;;;;;2.86;50.67;101257.25;10464485;28;20052;-58
2023/03/01 01:20:19;;;;;;;12.02;10.75;;;;;;;2.83;50.95;101252.97;10487306;28;20642;-58
2023/03/01 01:25:21;;;;;;;13.20;11.85;;;;;;;2.83;51.29;101230.13;10493108;28;20117;-58
2023/03/01 01:30:22;;;;;;;12.85;11.57;;;;;;;2.79;51.17;101232.91;10471903;28;20079;-58
2023/03/01 01:35:24;;;;;;;12.02;10.82;;;;;;;2.80;51.44;101214.47;10493466;28;20145;-59
2023/03/01 01:40:26;;;;;;;12.13;10.93;;;;;;;2.78;51.41;101216.28;10475324;28;20127;-61
2023/03/01 01:45:33;;;;;;;13.57;12.18;;;;;;;2.78;51.48;101215.44;10493576;28;20454;-59
2023/03/01 01:50:38;;;;;;;12.90;11.57;;;;;;;2.78;51.14;101221.56;10492196;28;20044;-59
2023/03/01 01:55:44;;;;;;;12.32;11.00;;;;;;;2.77;51.51;101217.19;10473196;28;20127;-59
2023/03/01 02:00:47;;;;;;;12.48;11.18;;;;;;;2.92;51.02;101217.63;10489073;28;20231;-64
2023/03/01 02:05:56;;;;;;;13.48;12.07;;;;;;;2.92;50.97;101228.13;10486323;28;20063;-59
2023/03/01 02:10:59;;;;;;;13.23;11.73;;;;;;;2.91;50.87;101226.41;10486432;28;20048;-57
2023/03/01 02:16:07;;;;;;;12.50;11.38;;;;;;;2.85;51.05;101216.09;10491307;28;20058;-59
2023/03/01 02:21:34;;;;;;;13.20;11.80;;;;;;;2.86;51.24;101223.94;10468501;28;20048;-58
2023/03/01 02:26:48;;;;;;;12.68;11.38;;;;;;;2.79;51.32;101202.25;10485040;28;20055;-58
2023/03/01 02:31:53;;;;;;;11.93;10.53;;;;;;;2.83;51.40;101187.22;10488460;28;20070;-58
2023/03/01 02:36:59;;;;;;;13.63;12.17;;;;;;;2.77;51.02;101174.28;10476579;28;20052;-60
2023/03/01 02:42:03;;;;;;;18.52;12.45;;;;;;;2.76;51.12;101183.94;10447890;28;20287;-58
2023/03/01 02:47:05;;;;;;;13.38;11.63;;;;;;;2.76;51.38;101176.06;10472547;28;20044;-59
2023/03/01 02:52:39;;;;;;;14.70;13.27;;;;;;;2.65;51.82;101183.41;10482765;28;20048;-59
2023/03/01 02:57:44;;;;;;;12.75;11.48;;;;;;;2.58;52.05;101155.59;10477251;28;20515;-59
2023/03/01 03:02:48;;;;;;;12.13;10.85;;;;;;;2.73;51.96;101162.13;10468460;28;20052;-60
2023/03/01 03:07:51;;;;;;;14.13;11.87;;;;;;;2.69;51.91;101161.38;10453125;28;20141;-59
2023/03/01 03:12:55;;;;;;;16.70;12.90;;;;;;;2.60;52.15;101149.41;10482829;28;20052;-59
2023/03/01 03:17:58;;;;;;;14.73;11.73;;;;;;;2.59;52.26;101144.19;10490656;28;20139;-59
2023/03/01 03:23:00;;;;;;;13.82;12.43;;;;;;;2.52;52.49;101140.03;10488485;28;20282;-60
2023/03/01 03:28:09;;;;;;;14.13;12.73;;;;;;;2.53;52.56;101142.63;10492352;28;20337;-59
2023/03/01 03:33:11;;;;;;;15.85;13.18;;;;;;;2.40;52.46;101126.41;10489121;28;20157;-59
2023/03/01 03:38:16;;;;;;;15.02;13.63;;;;;;;2.31;52.86;101116.16;10450415;28;20123;-59
2023/03/01 03:43:21;;;;;;;14.20;12.63;;;;;;;2.36;52.92;101132.66;10488606;28;20052;-57
2023/03/01 03:48:24;;;;;;;16.42;14.02;;;;;;;2.30;53.17;101123.22;10486777;28;20048;-59
2023/03/01 03:53:28;;;;;;;15.65;13.40;;;;;;;2.33;52.89;101138.03;10473438;28;20060;-58
2023/03/01 03:58:30;;;;;;;14.57;12.73;;;;;;;2.34;53.11;101121.31;10489547;28;20047;-60
2023/03/01 04:03:33;;;;;;;15.63;12.85;;;;;;;2.37;53.07;101131.75;10496432;28;20453;-60
2023/03/01 04:08:34;;;;;;;13.90;12.50;;;;;;;2.28;52.88;101121.53;10511149;28;20055;-60
2023/03/01 04:13:36;;;;;;;15.50;12.90;;;;;;;1.97;53.22;101098.00;10501097;28;20048;-59
2023/03/01 04:18:37;;;;;;;17.10;14.50;;;;;;;2.12;53.38;101122.03;10492160;28;20047;-59
2023/03/01 04:23:40;;;;;;;16.67;14.00;;;;;;;2.14;53.72;101129.84;10492421;28;20052;-59
2023/03/01 04:28:45;;;;;;;15.50;13.88;;;;;;;2.10;53.67;101126.47;10492157;28;20087;-59
2023/03/01 04:33:53;;;;;;;15.27;13.68;;;;;;;2.04;53.63;101110.91;10486575;28;20049;-61
2023/03/01 04:38:56;;;;;;;15.77;13.65;;;;;;;2.10;53.89;101113.34;10477604;28;20051;-60
2023/03/01 04:43:59;;;;;;;16.00;14.25;;;;;;;2.10;53.80;101110.72;10451170;28;20059;-60
2023/03/01 04:49:02;;;;;;;18.58;14.23;;;;;;;2.15;53.31;101117.56;10487268;28;20123;-60
2023/03/01 04:54:05;;;;;;;15.52;13.93;;;;;;;2.11;53.65;101125.53;10490770;28;20113;-60
2023/03/01 04:59:08;;;;;;;17.73;14.50;;;;;;;1.73;53.88;101075.09;10462087;28;20035;-60
2023/03/01 05:04:13;;;;;;;17.08;13.27;;;;;;;2.08;53.93;101128.28;10479600;28;20058;-60
2023/03/01 05:09:14;;;;;;;15.75;13.57;;;;;;;2.02;53.93;101106.59;10464106;28;20124;-59
2023/03/01 05:14:16;;;;;;;15.65;13.95;;;;;;;1.94;54.56;101112.09;10481944;28;20059;-59
2023/03/01 05:19:22;;;;;;;14.98;13.38;;;;;;;2.00;54.23;101108.41;10467220;28;20143;-59
2023/03/01 05:24:24;;;;;;;16.27;14.57;;;;;;;2.00;54.26;101113.66;10470722;28;20131;-58
2023/03/01 05:29:27;;;;;;;16.48;14.73;;;;;;;2.02;53.63;101110.06;10488233;28;20613;-60
2023/03/01 05:34:35;;;;;;;15.35;13.75;;;;;;;2.04;54.23;101108.28;10444383;28;20058;-60
2023/03/01 05:39:37;;;;;;;17.10;13.98;;;;;;;2.02;54.03;101112.72;10466521;28;20051;-60
2023/03/01 05:44:38;;;;;;;16.38;13.82;;;;;;;2.02;53.69;101109.22;10461960;28;20190;-59
2023/03/01 05:49:40;;;;;;;19.73;13.25;;;;;;;2.01;54.11;101103.13;10451519;28;20048;-59
2023/03/01 05:54:41;;;;;;;15.52;13.88;;;;;;;2.00;53.85;101096.16;10468175;28;20549;-60
2023/03/01 05:59:43;;;;;;;15.98;14.27;;;;;;;1.96;53.64;101098.91;10466858;28;20144;-60
2023/03/01 06:04:44;;;;;;;14.75;13.23;;;;;;;1.85;54.08;101080.88;10467195;28;20153;-59
2023/03/01 06:09:46;;;;;;;15.50;13.90;;;;;;;1.93;54.06;101099.88;10470535;28;20044;-61
2023/03/01 06:14:48;;;;;;;15.70;13.98;;;;;;;1.93;54.30;101102.50;10478143;28;20762;-60
2023/03/01 06:19:49;;;;;;;15.93;14.23;;;;;;;1.87;54.17;101093.03;10475662;28;20048;-60
2023/03/01 06:24:51;;;;;;;15.07;13.60;;;;;;;1.82;54.36;101087.06;10470357;28;20061;-59
2023/03/01 06:29:52;;;;;;;16.13;13.43;;;;;;;1.97;54.51;101103.25;10472406;28;20063;-61
2023/03/01 06:34:54;;;;;;;17.92;13.70;;;;;;;1.99;54.47;101111.94;10459418;28;20564;-60
2023/03/01 06:39:57;;;;;;;18.83;14.07;;;;;;;2.08;53.99;101099.38;10453817;28;20873;-61
2023/03/01 06:44:59;;;;;;;15.80;13.00;;;;;;;2.08;53.60;101073.13;10453684;28;20427;-60
2023/03/01 06:50:02;;;;;;;15.35;13.68;;;;;;;2.22;53.83;101079.69;10475314;28;20511;-60
2023/03/01 06:55:04;;;;;;;18.27;14.25;;;;;;;2.23;53.45;101060.41;10462346;28;20056;-60
2023/03/01 07:00:07;;;;;;;16.17;14.40;;;;;;;2.66;58.49;101082.63;10426239;28;20148;-61
2023/03/01 07:05:10;;;;;;;16.33;14.23;;;;;;;2.77;52.82;101083.09;10474208;28;20097;-58
2023/03/01 07:10:13;;;;;;;16.97;14.37;;;;;;;2.76;52.64;101085.78;10453474;28;20453;-58
2023/03/01 07:15:15;;;;;;;19.00;15.13;;;;;;;2.54;53.11;101085.63;10460469;28;20048;-57
2023/03/01 07:20:18;;;;;;;15.90;14.10;;;;;;;2.56;53.33;101095.19;10472185;28;20059;-70
2023/03/01 07:25:20;;;;;;;18.23;14.05;;;;;;;2.54;53.42;101086.53;10464888;28;20139;-59
2023/03/01 07:30:22;;;;;;;17.10;14.65;;;;;;;2.46;53.43;101071.00;10467997;28;20066;-58
2023/03/01 07:35:26;;;;;;;20.70;14.48;;;;;;;2.54;53.40;101075.13;10472882;28;20109;-59
2023/03/01 07:40:28;;;;;;;19.67;14.65;;;;;;;2.44;53.49;101064.94;10451469;28;20129;-60
2023/03/01 07:45:30;;;;;;;16.85;14.25;;;;;;;2.56;53.48;101073.31;10470835;28;20589;-59
2023/03/01 07:50:32;;;;;;;19.40;14.70;;;;;;;2.64;53.60;101079.16;10452299;28;20381;-60
2023/03/01 07:55:33;;;;;;;21.17;14.73;;;;;;;2.61;53.56;101076.63;10472265;28;20056;-62
2023/03/01 08:00:35;;;;;;;27.48;16.05;;;;;;;2.77;53.78;101075.19;10467665;28;20048;-61
2023/03/01 08:05:36;;;;;;;22.38;18.77;;;;;;;3.07;52.45;101061.88;10465041;28;20052;-62
2023/03/01 08:10:38;;;;;;;18.70;14.52;;;;;;;3.33;51.81;101053.03;10463188;28;20404;-62
2023/03/01 08:15:40;;;;;;;16.45;14.70;;;;;;;3.62;50.95;101082.66;10468682;28;20048;-62
2023/03/01 08:20:41;;;;;;;18.38;14.73;;;;;;;3.84;50.58;101071.28;10469685;28;20044;-61
2023/03/01 08:25:43;;;;;;;19.63;15.55;;;;;;;4.00;49.98;101043.41;10442254;28;20138;-60
2023/03/01 08:30:45;;;;;;;19.10;14.73;;;;;;;4.18;49.54;101051.50;10472700;28;20182;-61
2023/03/01 08:35:46;;;;;;;17.23;14.75;;;;;;;4.40;49.15;101048.84;10468647;28;20708;-63
2023/03/01 08:40:50;;;;;;;18.73;14.48;;;;;;;4.52;49.08;101045.66;10468872;28;20519;-60
2023/03/01 08:45:53;;;;;;;15.52;13.88;;;;;;;4.72;48.72;101055.34;10444595;28;20103;-60
2023/03/01 08:51:07;;;;;;;16.70;14.48;;;;;;;5.01;47.68;101044.44;10453656;28;20055;-61
2023/03/01 08:56:09;;;;;;;15.00;13.35;;;;;;;5.20;47.18;101033.94;10452086;28;20048;-60
2023/03/01 09:01:13;;;;;;;14.45;13.05;;;;;;;5.40;46.80;101033.84;10462867;28;20496;-61
2023/03/01 09:06:17;;;;;;;14.73;13.20;;;;;;;5.72;46.32;101036.78;10469779;28;20075;-63
2023/03/01 09:11:21;;;;;;;15.63;14.02;;;;;;;5.83;45.10;101023.91;10471029;28;20131;-66
2023/03/01 09:16:24;;;;;;;17.57;14.93;;;;;;;6.05;44.66;101014.97;10459674;28;21897;-62
2023/03/01 09:21:25;;;;;;;16.95;13.25;;;;;;;6.30;44.37;100998.72;10469587;28;20322;-66
2023/03/01 09:26:40;;;;;;;19.25;15.10;;;;;;;6.50;43.63;100991.53;10468261;28;20917;-66
2023/03/01 09:31:43;;;;;;;23.13;16.33;;;;;;;6.76;42.72;100989.34;10463137;28;20060;-70
2023/03/01 09:36:44;;;;;;;17.73;13.52;;;;;;;7.08;42.95;100988.47;10464521;28;20142;-66
2023/03/01 09:42:03;;;;;;;20.05;15.35;;;;;;;7.43;42.09;100998.94;10479632;28;20558;-70
2023/03/01 09:47:12;;;;;;;19.67;14.70;;;;;;;7.62;41.47;100992.59;10473533;28;20145;-68
2023/03/01 09:52:32;;;;;;;15.30;13.82;;;;;;;7.89;41.37;100987.50;10477541;28;20441;-68
2023/03/01 09:58:21;;;;;;;17.67;15.32;;;;;;;8.20;40.54;100974.28;10476350;28;20392;-66
2023/03/01 10:03:35;;;;;;;16.88;15.25;;;;;;;8.80;38.72;100970.72;10445182;28;20048;-68
2023/03/01 10:09:10;;;;;;;14.20;12.63;;;;;;;9.67;37.35;100966.97;10465552;28;20056;-70
2023/03/01 10:14:32;;;;;;;14.80;13.30;;;;;;;10.96;35.17;100977.81;10462302;28;20048;-68
2023/03/01 10:19:38;;;;;;;15.13;13.82;;;;;;;13.78;30.84;100968.84;10475806;28;21039;-64
2023/03/01 10:24:40;;;;;;;15.50;13.90;;;;;;;15.12;28.99;100968.19;10418835;28;20048;-66
2023/03/01 10:30:19;;;;;;;14.63;13.32;;;;;;;15.13;27.87;100969.03;10452047;28;20196;-68
2023/03/01 10:35:25;;;;;;;15.25;13.57;;;;;;;14.00;29.76;100951.03;10455051;28;20055;-66
2023/03/01 10:40:27;;;;;;;16.00;13.23;;;;;;;13.91;29.98;100947.28;10444206;28;20058;-67
2023/03/01 10:45:34;;;;;;;14.05;12.65;;;;;;;14.47;29.14;100938.09;10463945;28;20303;-68
2023/03/01 10:50:39;;;;;;;14.65;13.25;;;;;;;16.16;26.15;100922.13;10472913;28;20097;-69
2023/03/01 10:55:43;;;;;;;13.77;12.48;;;;;;;19.01;22.92;100920.00;10472197;28;20639;-69
2023/03/01 11:01:05;;;;;;;13.07;11.70;;;;;;;20.87;20.83;100907.88;10464677;28;20114;-66
2023/03/01 11:06:12;;;;;;;14.32;12.98;;;;;;;21.65;20.13;100889.91;10436625;28;20075;-70
2023/03/01 11:11:31;;;;;;;14.00;12.60;;;;;;;21.93;19.36;100881.19;10473573;28;20097;-68
2023/03/01 11:16:38;;;;;;;13.02;11.90;;;;;;;22.55;18.72;100866.53;10445529;28;20036;-69
2023/03/01 11:21:48;;;;;;;14.32;12.00;;;;;;;22.76;18.35;100861.19;10470762;28;20047;-69
2023/03/01 11:26:55;;;;;;;11.98;10.77;;;;;;;24.32;17.21;100851.63;10438652;28;20052;-70
2023/03/01 11:32:01;;;;;;;12.27;11.02;;;;;;;24.92;16.55;100857.44;10475386;28;20391;-71
2023/03/01 11:37:11;;;;;;;10.80;9.68;;;;;;;26.06;15.09;100838.53;10423408;28;20059;-70
2023/03/01 11:42:27;;;;;;;10.02;9.13;;;;;;;25.90;14.47;100834.34;10452427;28;20048;-69
2023/03/01 11:48:07;;;;;;;10.43;9.40;;;;;;;26.98;13.56;100824.84;10456872;28;20647;-70
2023/03/01 11:53:36;;;;;;;9.65;8.77;;;;;;;27.22;13.25;100820.50;10456080;28;20204;-68
2023/03/01 11:59:07;;;;;;;9.73;8.88;;;;;;;27.80;12.88;100797.56;10451227;28;20060;-66
2023/03/01 12:04:28;;;;;;;;;;;;;;;28.29;12.45;100805.09;10457631;28;20048;-69
2023/03/01 12:09:51;;;;;;;10.05;9.15;;;;;;;28.25;12.17;100803.88;10449476;28;19928;-68
2023/03/01 12:15:00;;;;;;;9.50;8.60;;;;;;;29.25;11.89;100778.78;10452780;28;20478;-67
2023/03/01 12:20:17;;;;;;;8.55;7.85;;;;;;;30.55;13.04;100783.44;10439468;28;20062;-52
2023/03/01 12:25:34;;;;;;;8.98;8.07;;;;;;;31.09;12.05;100772.13;10455059;28;20052;-52
2023/03/01 12:30:46;;;;;;;8.57;7.88;;;;;;;31.76;10.59;100762.22;10474158;28;20051;-51
2023/03/01 12:36:10;;;;;;;8.43;7.00;;;;;;;31.82;9.93;100757.63;10452133;28;20056;-64
2023/03/01 12:41:24;;;;;;;7.32;6.63;;;;;;;32.13;10.50;100744.28;10461035;28;20103;-61
2023/03/01 12:46:53;;;;;;;7.70;7.05;;;;;;;32.50;9.48;100738.13;10429362;28;20653;-61
2023/03/01 12:52:09;;;;;;;6.85;6.25;;;;;;;32.67;9.82;100730.66;10447459;28;20053;-60
2023/03/01 12:57:55;;;;;;;7.93;7.22;;;;;;;32.49;9.51;100718.03;10472045;28;20063;-66
2023/03/01 13:03:35;;;;;;;11.43;6.90;;;;;;;32.74;9.03;100706.47;10433866;28;20132;-64
2023/03/01 13:08:49;;;;;;;;;;;;;;;32.75;9.09;100696.28;10456578;28;20074;-64
2023/03/01 13:13:54;;;;;;;7.20;6.50;;;;;;;33.13;8.93;100698.00;10433277;28;19928;-64
2023/03/01 13:19:15;;;;;;;7.75;7.05;;;;;;;33.17;9.37;100697.47;10444629;28;20671;-68
2023/03/01 13:24:27;;;;;;;;;;;;;;;32.99;9.60;100691.25;10462404;28;20085;-69
2023/03/01 13:29:50;;;;;;;7.60;7.00;;;;;;;32.75;9.52;100679.72;10444390;28;19928;-68
2023/03/01 13:34:58;;;;;;;8.38;7.68;;;;;;;32.49;10.10;100670.34;10449901;28;20089;-67
2023/03/01 13:40:04;;;;;;;8.05;7.45;;;;;;;32.42;9.91;100659.53;10455900;28;20683;-65
2023/03/01 13:45:42;;;;;;;16.13;15.02;;;;;;;32.03;9.54;100643.94;10423990;28;20073;-66
2023/03/01 13:51:01;;;;;;;9.43;7.47;;;;;;;31.92;9.86;100661.44;10417415;28;20056;-65
2023/03/01 13:56:11;;;;;;;8.33;7.53;;;;;;;31.94;10.11;100644.66;10428468;28;20498;-65
2023/03/01 14:01:29;;;;;;;7.88;7.05;;;;;;;32.12;9.81;100649.03;10429811;28;20119;-65
2023/03/01 14:06:35;;;;;;;8.93;8.00;;;;;;;31.55;10.20;100629.03;10425862;28;20048;-64
2023/03/01 14:11:55;;;;;;;8.52;7.13;;;;;;;31.87;10.07;100633.84;10409970;28;20696;-64
2023/03/01 14:17:20;;;;;;;;;;;;;;;32.03;9.94;100638.44;10463830;28;20044;-68
2023/03/01 14:22:29;;;;;;;10.13;7.68;;;;;;;32.08;9.98;100633.00;10463999;28;20072;-69
2023/03/01 14:27:41;;;;;;;8.25;7.50;;;;;;;31.68;10.22;100625.09;10456852;28;20062;-66
2023/03/01 14:32:55;;;;;;;7.95;7.20;;;;;;;31.17;10.04;100617.75;10442761;28;20189;-66
2023/03/01 14:37:57;;;;;;;7.82;7.03;;;;;;;31.16;10.51;100621.56;10462548;28;20112;-65
2023/03/01 14:43:01;;;;;;;8.52;6.78;;;;;;;30.83;10.66;100619.66;10438213;28;20079;-66
2023/03/01 14:48:05;;;;;;;9.38;7.75;;;;;;;30.57;10.66;100615.66;10429263;28;20201;-69
2023/03/01 14:53:16;;;;;;;8.27;7.53;;;;;;;29.85;11.30;100603.28;10394221;28;20110;-66
2023/03/01 14:58:24;;;;;;;13.23;7.38;;;;;;;29.16;11.46;100599.28;10455686;28;20940;-63
2023/03/01 15:03:42;;;;;;;8.30;7.65;;;;;;;26.43;13.72;100594.09;10467155;28;20099;-62
2023/03/01 15:08:51;;;;;;;13.13;8.20;;;;;;;24.92;14.39;100597.91;10453813;28;20904;-66
2023/03/01 15:13:54;;;;;;;11.13;8.68;;;;;;;21.36;17.30;100590.84;10446807;28;20108;-64
2023/03/01 15:19:05;;;;;;;10.25;8.93;;;;;;;19.39;19.31;100591.13;10434662;28;20109;-63
2023/03/01 15:24:11;;;;;;;9.82;8.82;;;;;;;18.11;20.92;100590.78;10467075;28;20044;-63
2023/03/01 15:29:22;;;;;;;9.13;8.10;;;;;;;17.17;21.70;100582.59;10467530;28;20377;-64
2023/03/01 15:34:32;;;;;;;9.32;8.25;;;;;;;16.26;22.96;100606.00;10421988;28;21289;-63
2023/03/01 15:39:39;;;;;;;8.93;8.13;;;;;;;15.66;23.22;100611.00;10432936;28;21002;-60
2023/03/01 15:44:41;;;;;;;9.98;8.60;;;;;;;15.11;24.01;100615.25;10451498;28;20040;-61
2023/03/01 15:49:44;;;;;;;10.02;9.00;;;;;;;14.72;24.57;100623.34;10451813;28;20048;-70
2023/03/01 15:54:59;;;;;;;10.20;8.40;;;;;;;14.22;25.41;100613.53;10462413;28;20044;-71
2023/03/01 16:00:00;;;;;;;9.32;8.43;;;;;;;13.97;25.71;100620.25;10440276;28;20052;-62
2023/03/01 16:05:03;;;;;;;10.38;8.38;;;;;;;13.48;26.40;100624.56;10457285;28;20036;-64
2023/03/01 16:10:05;;;;;;;10.23;9.10;;;;;;;13.09;27.24;100619.84;10433108;28;20052;-60
2023/03/01 16:15:25;;;;;;;10.18;8.68;;;;;;;12.84;27.70;100626.41;10453805;28;20055;-59
2023/03/01 16:20:29;;;;;;;11.45;8.95;;;;;;;12.73;27.76;100629.97;10447483;28;20123;-60
2023/03/01 16:25:35;;;;;;;9.52;8.45;;;;;;;12.39;28.23;100635.44;10431800;28;20059;-63
2023/03/01 16:30:39;;;;;;;9.90;8.90;;;;;;;12.05;28.55;100635.50;10459447;28;20500;-60
2023/03/01 16:35:43;;;;;;;10.30;9.30;;;;;;;11.72;28.83;100625.69;10449324;28;20059;-59
2023/03/01 16:40:48;;;;;;;10.07;9.05;;;;;;;11.41;29.26;100625.44;10448678;28;20725;-60
2023/03/01 16:45:49;;;;;;;10.35;9.27;;;;;;;11.34;29.36;100629.56;10475580;28;20060;-65
2023/03/01 16:51:01;;;;;;;10.75;9.75;;;;;;;11.01;29.72;100629.38;10456471;28;20284;-61
2023/03/01 16:56:05;;;;;;;10.82;9.73;;;;;;;10.90;30.08;100643.50;10450494;28;20078;-60
2023/03/01 17:01:10;;;;;;;11.23;9.50;;;;;;;10.72;30.63;100642.22;10453874;28;20051;-60
2023/03/01 17:06:15;;;;;;;10.18;9.18;;;;;;;10.51;30.99;100642.88;10460241;28;20325;-61
2023/03/01 17:11:17;;;;;;;;;;;;;;;10.34;31.37;100645.91;10457080;28;20056;-60
2023/03/01 17:16:20;;;;;;;11.05;9.05;;;;;;;10.21;31.47;100653.91;10471909;28;19940;-60
2023/03/01 17:21:22;;;;;;;10.88;9.63;;;;;;;9.78;32.18;100617.94;10470258;28;20128;-59
2023/03/01 17:26:23;;;;;;;11.75;9.85;;;;;;;9.99;32.97;100658.13;10471535;28;20444;-65
2023/03/01 17:31:25;;;;;;;13.85;11.02;;;;;;;9.82;33.07;100655.81;10436041;28;20129;-63
2023/03/01 17:36:26;;;;;;;13.38;10.95;;;;;;;9.68;33.74;100668.28;10466484;28;20544;-64
2023/03/01 17:41:28;;;;;;;12.00;10.52;;;;;;;9.53;34.37;100678.16;10443813;28;20146;-61
2023/03/01 17:46:30;;;;;;;12.20;10.90;;;;;;;9.38;34.11;100674.75;10454219;28;20072;-60
2023/03/01 17:51:31;;;;;;;13.00;10.40;;;;;;;9.19;34.29;100659.22;10440847;28;20062;-63
2023/03/01 17:56:37;;;;;;;16.38;12.60;;;;;;;9.29;34.85;100685.16;10441878;28;20083;-62
2023/03/01 18:01:41;;;;;;;13.93;11.63;;;;;;;9.09;35.78;100676.75;10460944;28;20048;-64
2023/03/01 18:06:43;;;;;;;11.77;10.57;;;;;;;8.99;35.09;100681.84;10456641;28;20059;-59
2023/03/01 18:11:44;;;;;;;10.95;9.77;;;;;;;8.69;35.37;100679.38;10441744;28;20058;-59
2023/03/01 18:16:48;;;;;;;12.20;10.82;;;;;;;8.62;35.45;100683.41;10468189;28;20174;-60
2023/03/01 18:21:49;;;;;;;12.00;10.57;;;;;;;8.43;36.71;100686.38;10462066;28;20714;-59
2023/03/01 18:26:51;;;;;;;12.05;10.75;;;;;;;8.50;36.71;100687.72;10463899;28;20050;-59
2023/03/01 18:31:53;;;;;;;13.95;10.13;;;;;;;8.28;35.91;100661.69;10462902;28;20059;-59
2023/03/01 18:36:55;;;;;;;12.15;10.88;;;;;;;8.09;35.97;100652.28;10467092;28;20047;-58
2023/03/01 18:42:09;;;;;;;;;;;;;;;8.05;36.18;100660.53;10447043;28;20625;-58
2023/03/01 18:47:11;;;;;;;26.98;17.80;;;;;;;7.89;36.71;100642.91;10427870;28;20301;-58
2023/03/01 18:52:13;;;;;;;14.13;11.40;;;;;;;7.81;36.70;100649.63;10424966;28;20130;-60
2023/03/01 18:57:14;;;;;;;15.80;11.77;;;;;;;7.67;37.26;100651.38;10457615;28;20179;-58
2023/03/01 19:02:16;;;;;;;14.20;10.95;;;;;;;7.48;37.28;100635.75;10447944;28;20058;-59
2023/03/01 19:07:17;;;;;;;12.98;10.82;;;;;;;7.40;37.50;100673.31;10453367;28;20083;-61
2023/03/01 19:12:19;;;;;;;14.35;10.77;;;;;;;7.28;37.50;100659.94;10435406;28;20062;-60
2023/03/01 19:17:29;;;;;;;11.18;10.02;;;;;;;7.28;37.41;100671.41;10452152;28;20056;-59
2023/03/01 19:22:31;;;;;;;12.27;11.02;;;;;;;7.17;37.53;100685.25;10453909;28;20050;-60
2023/03/01 19:27:34;;;;;;;12.98;11.40;;;;;;;7.08;38.06;100685.81;10469255;28;20143;-61
2023/03/01 19:32:35;;;;;;;14.07;11.57;;;;;;;6.95;38.40;100672.47;10468278;28;20814;-58
2023/03/01 19:37:37;;;;;;;12.75;10.35;;;;;;;7.03;38.02;100683.44;10461119;28;20233;-59
2023/03/01 19:42:38;;;;;;;11.55;10.35;;;;;;;6.91;38.51;100694.75;10464747;28;21340;-59
2023/03/01 19:47:40;;;;;;;11.82;10.63;;;;;;;6.78;39.39;100696.41;10466328;28;20054;-58
2023/03/01 19:52:41;;;;;;;13.88;10.00;;;;;;;6.72;39.66;100698.47;10460296;28;20055;-60
2023/03/01 19:57:43;;;;;;;11.55;10.35;;;;;;;6.52;40.49;100696.09;10458333;28;20056;-60
2023/03/01 20:02:44;;;;;;;14.68;11.88;;;;;;;6.40;40.96;100708.22;10460684;28;20059;-57
2023/03/01 20:07:46;;;;;;;13.68;11.10;;;;;;;6.40;40.94;100689.69;10459321;28;20071;-59
2023/03/01 20:12:48;;;;;;;17.05;13.63;;;;;;;6.42;41.01;100702.84;10456479;28;20040;-59
2023/03/01 20:17:50;;;;;;;13.57;11.80;;;;;;;6.39;41.02;100692.44;10443999;28;20056;-67
2023/03/01 20:22:51;;;;;;;15.70;12.20;;;;;;;6.42;41.89;100701.03;10461757;28;20134;-59
2023/03/01 20:27:53;;;;;;;14.88;11.52;;;;;;;6.17;41.84;100678.63;10454020;28;20048;-59
2023/03/01 20:32:55;;;;;;;20.80;12.38;;;;;;;6.13;42.20;100695.56;10439565;28;20695;-60
2023/03/01 20:37:56;;;;;;;13.88;11.48;;;;;;;6.14;42.16;100702.59;10459859;28;20048;-61
2023/03/01 20:42:59;;;;;;;14.77;11.75;;;;;;;6.09;42.38;100696.69;10456413;28;20698;-60
2023/03/01 20:48:01;;;;;;;12.32;11.00;;;;;;;5.82;42.19;100651.44;10458801;28;20597;-61
2023/03/01 20:53:02;;;;;;;12.55;11.25;;;;;;;5.91;42.61;100682.63;10422396;28;20126;-60
2023/03/01 20:58:04;;;;;;;15.10;11.70;;;;;;;5.88;42.76;100693.38;10416788;28;20056;-62
2023/03/01 21:03:06;;;;;;;14.45;11.68;;;;;;;5.87;42.86;100689.06;10448074;28;20105;-59
2023/03/01 21:08:09;;;;;;;12.43;11.20;;;;;;;5.77;43.04;100693.97;10435304;28;20529;-60
2023/03/01 21:13:10;;;;;;;13.82;11.07;;;;;;;5.70;43.14;100689.09;10438948;28;20424;-60
2023/03/01 21:18:12;;;;;;;13.38;11.85;;;;;;;5.64;43.15;100684.97;10444384;28;20053;-60
2023/03/01 21:23:14;;;;;;;12.40;11.10;;;;;;;5.55;43.14;100686.31;10458044;28;20435;-61
2023/03/01 21:28:16;;;;;;;12.60;10.70;;;;;;;5.51;43.23;100684.78;10451208;28;20500;-60
2023/03/01 21:33:17;;;;;;;14.60;12.30;;;;;;;5.43;43.44;100665.84;10465279;28;20056;-60
2023/03/01 21:38:19;;;;;;;16.20;12.52;;;;;;;5.45;43.36;100677.16;10477311;28;20066;-59
2023/03/01 21:43:21;;;;;;;14.73;12.05;;;;;;;5.29;43.20;100662.13;10489659;28;20059;-65
2023/03/01 21:48:23;;;;;;;12.88;11.43;;;;;;;5.14;43.88;100671.69;10477005;28;20056;-63
2023/03/01 21:53:27;;;;;;;13.70;11.70;;;;;;;5.20;43.89;100675.81;10487538;28;20056;-59
2023/03/01 21:58:30;;;;;;;14.33;11.47;;;;;;;5.21;43.74;100688.09;10479268;28;20048;-59
2023/03/01 22:03:32;;;;;;;11.30;10.20;;;;;;;5.13;44.02;100682.31;10485333;28;20052;-60
2023/03/01 22:08:34;;;;;;;14.32;12.13;;;;;;;5.09;43.99;100678.16;10486019;28;20118;-59
2023/03/01 22:13:35;;;;;;;12.48;10.82;;;;;;;5.11;43.73;100673.66;10483958;28;20063;-59
2023/03/01 22:18:37;;;;;;;15.20;11.18;;;;;;;5.14;43.78;100676.13;10482317;28;20781;-59
2023/03/01 22:23:39;;;;;;;12.23;10.93;;;;;;;5.08;43.78;100677.28;10482991;28;20070;-59
2023/03/01 22:28:41;;;;;;;12.35;11.02;;;;;;;5.08;44.06;100676.44;10493252;28;20120;-59
2023/03/01 22:33:46;;;;;;;15.75;11.98;;;;;;;5.03;44.11;100681.94;10484205;28;20063;-60
2023/03/01 22:38:48;;;;;;;13.00;10.98;;;;;;;4.97;44.17;100671.72;10465591;28;20075;-59
2023/03/01 22:43:49;;;;;;;14.80;11.43;;;;;;;4.95;44.29;100671.78;10471103;28;20197;-60
2023/03/01 22:48:51;;;;;;;15.27;11.82;;;;;;;4.83;43.97;100658.34;10475980;28;20083;-61
2023/03/01 22:53:53;;;;;;;12.43;10.63;;;;;;;4.81;44.40;100658.44;10481920;28;20343;-59
2023/03/01 22:58:59;;;;;;;12.85;10.88;;;;;;;4.50;44.82;100627.44;10486264;28;20072;-60
2023/03/01 23:04:01;;;;;;;12.77;10.77;;;;;;;4.72;44.49;100653.63;10467679;28;20635;-59
2023/03/01 23:09:05;;;;;;;11.43;10.23;;;;;;;4.59;45.16;100654.22;10485048;28;20044;-59
2023/03/01 23:14:07;;;;;;;14.38;12.02;;;;;;;4.47;45.28;100630.22;10485963;28;20108;-59
2023/03/01 23:19:08;;;;;;;13.50;11.15;;;;;;;4.48;45.53;100635.44;10446161;28;20052;-60